• Join FlightAware (Why Join?)
  • Login
  • US Flag 
02:42AM EST


 

Airport Tracker/Info


-or-


 

Live Flight TrackerFlight Track Log ✈ JST818 ✈ 29-Aug-2014 ✈ YSSY / SYD - YBBN / BNE

Flight Track Log - Related Links

Times and Time Zones

All times are in EDT time to prevent confusion due to time zone crossing. See the JST818 flight status page for this flight to view local times or setup timezone preferences in your user account.

Time Position Orientation Groundspeed Altitude Reporting Facility
EDT Latitude Longitude Course Direction KTS MPH feet Rate Location/Type
05:06AM -33.9703 151.1938 167° South 124 143 900  Level FlightAware ADS-B
05:06AM -33.9800 151.1983 124° Southeast 161 185 1,300 1,227 Climbing FlightAware ADS-B
05:07AM -33.9930 151.2282 114° Southeast 206 237 1,800 1,256 Climbing FlightAware ADS-B
05:07AM -34.0045 151.2452 139° Southeast 220 253 2,200 1,714 Climbing FlightAware ADS-B
05:07AM -34.0079 151.2486 144° Southeast 240 276 2,800 2,063 Climbing FlightAware ADS-B
05:07AM -34.0334 151.2710 144° Southeast 261 300 3,300 1,650 Climbing FlightAware ADS-B
05:08AM -34.0581 151.2932 143° Southeast 300 345 3,900 2,308 Climbing FlightAware ADS-B
05:08AM -34.0765 151.3105 141° Southeast 305 351 4,800 4,653 Climbing FlightAware ADS-B (YSSY / SYD)
05:09AM -34.1118 151.3456 141° Southeast 297 342 7,700 4,537 Climbing Aus ATC (RADAR)
05:09AM -34.1175 151.3513 140° Southeast 288 331 7,900 2,538 Climbing FlightAware ADS-B (YSSY / SYD)
05:09AM -34.1350 151.3757 120° Southeast 303 349 8,800 2,791 Climbing FlightAware ADS-B (YSSY / SYD)
05:09AM -34.1284 151.3641 91° East 324 373 9,900 2,830 Climbing FlightAware ADS-B (YSRI)
05:10AM -34.1264 151.4664 47° Northeast 359 413 11,300 2,933 Climbing FlightAware ADS-B (YSRI)
05:10AM -34.1098 151.4822 25° Northeast 371 427 12,100 1,600 Climbing FlightAware ADS-B (YSRI)
05:11AM -34.0374 151.5099 15° North 410 472 12,900 1,275 Climbing FlightAware ADS-B (YSRI)
05:11AM -33.9617 151.5344 15° North 436 502 13,800 1,946 Climbing FlightAware ADS-B (YSRI)
05:12AM -33.8830 151.5605 16° North 442 509 15,300 2,160 Climbing FlightAware ADS-B (YSRI)
05:13AM -33.8111 151.5845 16° North 450 518 16,500 1,920 Climbing FlightAware ADS-B (YSRI)
05:13AM -33.7351 151.6102 16° North 456 525 17,700 1,941 Climbing FlightAware ADS-B (YSRI)
05:14AM -33.6696 151.6322 16° North 462 532 18,700 2,000 Climbing FlightAware ADS-B (YSRI)
05:14AM -33.6076 151.6532 16° North 463 533 19,700 1,714 Climbing FlightAware ADS-B (YSRI)
05:15AM -33.5401 151.6760 16° North 471 542 20,500 1,403 Climbing FlightAware ADS-B
05:16AM -33.4476 151.7073 16° North 481 554 21,500 1,385 Climbing FlightAware ADS-B (YRAY)
05:16AM -33.3728 151.7325 16° North 483 556 22,300 1,342 Climbing FlightAware ADS-B (YSRI)
05:17AM -33.2835 151.7625 16° North 488 562 23,200 1,167 Climbing FlightAware ADS-B (YSRI)
05:17AM -33.2176 151.7845 16° North 494 568 23,700 1,292 Climbing FlightAware ADS-B
05:18AM -33.1401 151.8105 16° North 493 567 24,600 1,343 Climbing FlightAware ADS-B (YSRI)
05:19AM -33.0685 151.8344 16° North 492 566 25,200 1,258 Climbing FlightAware ADS-B (YSRI)
05:19AM -33.0115 151.8535 16° North 490 564 25,900 2,239 Climbing FlightAware ADS-B (YSRI)
05:20AM -32.9265 151.8816 16° North 482 555 27,700 2,571 Climbing Aus ATC (RADAR)
05:20AM -32.9469 151.8750 16° North 467 537 27,700 1,149 Level FlightAware ADS-B
05:20AM -32.8315 151.9134 16° North 465 535 28,600 1,054 Climbing FlightAware ADS-B
05:21AM -32.7605 151.9369 16° North 471 542 29,000 882 Climbing FlightAware ADS-B
05:22AM -32.6844 151.9622 16° North 475 547 29,600 1,091 Climbing FlightAware ADS-B (YSRI)
05:22AM -32.6214 151.9830 16° North 477 549 30,200 1,279 Climbing FlightAware ADS-B (YSRI)
05:23AM -32.5550 152.0050 16° North 474 545 30,900 1,258 Climbing FlightAware ADS-B (YSRI)
05:23AM -32.4928 152.0256 16° North 471 542 31,500 938 Climbing FlightAware ADS-B
05:24AM -32.4300 152.0463 16° North 477 549 31,900 1,014 Climbing FlightAware ADS-B
05:24AM -32.3501 152.0726 16° North 476 548 32,700 845 Climbing FlightAware ADS-B (YSRI)
05:25AM -32.2682 152.0994 16° North 483 556 32,900 806 Climbing FlightAware ADS-B (YSRI)
05:25AM -32.2256 152.1133 16° North 480 552 33,600 923 Climbing FlightAware ADS-B (YSRI)
05:26AM -32.1275 152.1454 16° North 487 560 33,900 1,125 Climbing FlightAware ADS-B (YSRI)
05:26AM -32.0587 152.1680 16° North 477 549 34,800 943 Climbing FlightAware ADS-B (YSRI)
05:27AM -31.9798 152.1937 16° North 467 537 35,000 179 Climbing FlightAware ADS-B (YSRI)
05:28AM -31.9158 152.2144 15° North 475 547 35,000 197 Level FlightAware ADS-B (YSRI)
05:28AM -31.8489 152.2349 15° North 477 549 35,200  Climbing Aus ATC (RADAR)
05:28AM -31.8383 152.2396 16° North 481 554 35,000 -316 Descending FlightAware ADS-B (YSRI)
05:29AM -31.7690 152.2620 15° North 491 565 35,000  Level FlightAware ADS-B (YSRI)
05:29AM -31.6916 152.2872 16° North 493 567 35,000  Level FlightAware ADS-B (YSRI)
05:30AM -31.6289 152.3074 15° North 489 563 35,000 462 Level FlightAware ADS-B (YSRI)
05:30AM -31.6080 152.3139 16° North 487 560 35,300  Climbing Aus ATC (RADAR)
05:31AM -31.5292 152.3395 15° North 492 566 35,000 -250 Descending FlightAware ADS-B (YSRI)
05:31AM -31.4487 152.3653 15° North 486 559 35,000 136 Level FlightAware ADS-B (YSRI)
05:32AM -31.3377 152.4008 15° North 489 563 35,200 158 Climbing Aus ATC (RADAR)
05:32AM -31.2828 152.4178 15° North 489 563 35,200 -255 Level Aus ATC (RADAR)
05:33AM -31.2710 152.4225 15° North 495 570 35,000 -188 Descending FlightAware ADS-B
05:34AM -31.1443 152.4630 15° North 496 571 35,000  Level FlightAware ADS-B
05:34AM -31.0932 152.4794 15° North 487 560 35,000 226 Level FlightAware ADS-B (YPLB)
05:34AM -31.0289 152.4998 15° North 483 556 35,200 222 Climbing Aus ATC (RADAR)
05:35AM -30.9446 152.5267 15° North 482 555 35,200 -128 Level Aus ATC (RADAR)
05:36AM -31.2410 152.4321 16° North 493 567 35,000  Descending FlightAware ADS-B
05:37AM -30.7374 152.5933 16° North 482 555 35,200 154 Climbing Aus ATC (RADAR)
05:37AM -30.6537 152.6252 18° North 487 560 35,200  Level Aus ATC (RADAR)
05:38AM -30.5758 152.6539 18° North 485 558 35,200  Level Aus ATC (RADAR)
05:39AM -30.4563 152.6972 17° North 488 562 35,200  Level Aus ATC (RADAR)
05:39AM -30.4020 152.7166 17° North 488 562 35,200  Level Aus ATC (RADAR)
05:40AM -30.3387 152.7396 17° North 493 567 35,200 -279 Level Aus ATC (RADAR)
05:40AM -30.3405 152.7390 18° North 479 551 35,000 -207 Descending FlightAware ADS-B (YBBN / BNE)
05:41AM -30.2224 152.7817 17° North 442 509 35,000  Level FlightAware ADS-B
05:41AM -30.1420 152.8105 17° North 422 486 35,000  Level FlightAware ADS-B (YBBN / BNE)
05:42AM -30.0832 152.8312 17° North 426 490 35,000  Level FlightAware ADS-B (YBBN / BNE)
05:42AM -30.0287 152.8506 17° North 428 493 35,000  Level FlightAware ADS-B (YBBN / BNE)
05:43AM -29.9417 152.8820 17° North 431 496 35,000  Level FlightAware ADS-B (YBBN / BNE)
05:44AM -29.8842 152.9024 17° North 434 499 35,000  Level FlightAware ADS-B (YBBN / BNE)
05:44AM -29.8278 152.9226 17° North 437 503 35,000 91 Level FlightAware ADS-B (YBBN / BNE)
05:45AM -29.7579 152.9475 17° North 439 505 35,100 80 Climbing FlightAware ADS-B (YBBN / BNE)
05:45AM -29.6771 152.9762 17° North 439 505 35,100  Level FlightAware ADS-B
05:46AM -29.6023 153.0027 17° North 437 503 35,100  Level FlightAware ADS-B (YBBN / BNE)
05:47AM -29.5454 153.0230 17° North 433 498 35,100 -80 Level FlightAware ADS-B (YBBN / BNE)
05:47AM -29.4629 153.0522 17° North 431 496 35,000 -80 Descending FlightAware ADS-B (YBBN / BNE)
05:48AM -29.4007 153.0741 17° North 430 495 35,000 -100 Level FlightAware ADS-B (YBBN / BNE)
05:48AM -29.3443 153.0939 17° North 430 495 34,900 -492 Descending FlightAware ADS-B (YBBN / BNE)
05:49AM -29.2878 153.1138 17° North 422 486 34,500 -689 Descending FlightAware ADS-B (YBBN / BNE)
05:49AM -29.2331 153.1329 17° North 411 473 34,200 -1,059 Descending Aus ATC (RADAR)
05:49AM -29.2253 153.1360 17° North 405 466 33,900 -1,886 Descending FlightAware ADS-B (YBBN / BNE)
05:50AM -29.1678 153.1563 17° North 399 459 33,100 -1,672 Descending FlightAware ADS-B (EGHI / SOU)
05:50AM -29.1186 153.1734 17° North 398 458 32,200 -1,600 Descending FlightAware ADS-B (YBBN / BNE)
05:51AM -29.0632 153.1931 17° North 392 451 31,500 -1,667 Descending FlightAware ADS-B (EGHI / SOU)
05:52AM -28.9903 153.2184 17° North 391 450 30,200 -1,643 Descending FlightAware ADS-B (EGHI / SOU)
05:52AM -28.9179 153.2437 17° North 383 441 29,200 -1,333 Descending FlightAware ADS-B (YBBN / BNE)
05:53AM -28.8682 153.2612 17° North 376 433 28,600 -1,200 Descending FlightAware ADS-B (YBBN / BNE)
05:53AM -28.8180 153.2787 17° North 367 422 28,000 -1,377 Descending FlightAware ADS-B (YBBN / BNE)
05:54AM -28.7680 153.2960 17° North 367 422 27,200 -1,579 Descending FlightAware ADS-B (YBBN / BNE)
05:55AM -28.6951 153.3213 17° North 366 421 26,000 -1,520 Descending FlightAware ADS-B (YBBN / BNE)
05:55AM -28.6478 153.3377 17° North 362 417 25,300 -1,475 Descending FlightAware ADS-B (YBBN / BNE)
05:56AM -28.5987 153.3548 17° North 359 413 24,500 -1,477 Descending FlightAware ADS-B (YBBN / BNE)
05:56AM -28.5448 153.3736 17° North 355 409 23,700 -1,391 Descending FlightAware ADS-B (YBBN / BNE)
05:57AM -28.4901 153.3926 17° North 351 404 22,900 -1,292 Descending FlightAware ADS-B (YBBN / BNE)
05:57AM -28.4418 153.4091 17° North 348 400 22,300 -1,300 Descending FlightAware ADS-B (YBBN / BNE)
05:58AM -28.4011 153.4232 17° North 345 397 21,600 -1,400 Descending FlightAware ADS-B (YBBN / BNE)
05:58AM -28.3515 153.4405 17° North 341 392 20,900 -1,377 Descending FlightAware ADS-B (YBBN / BNE)
05:59AM -28.3053 153.4565 17° North 339 390 20,200 -1,377 Descending FlightAware ADS-B (YBBN / BNE)
05:59AM -28.2600 153.4721 17° North 335 386 19,500 -1,273 Descending FlightAware ADS-B (YBBN / BNE)
06:00AM -28.2061 153.4909 17° North 334 384 18,800 -1,180 Descending Aus ATC (RADAR)
06:00AM -28.1682 153.5032 16° North 342 394 18,300 -1,692 Descending Aus ATC (RADAR)
06:00AM -28.1459 153.5002 352° North 338 389 17,700 -1,759 Descending FlightAware ADS-B (YBBN / BNE)
06:01AM -28.0776 153.4877 351° North 340 391 16,600 -1,459 Descending FlightAware ADS-B (YBBN / BNE)
06:02AM -28.0325 153.4797 351° North 337 388 15,900 -1,377 Descending FlightAware ADS-B (YBBN / BNE)
06:02AM -27.9832 153.4711 351° North 336 387 15,200 -1,377 Descending FlightAware ADS-B (YBBN / BNE)
06:03AM -27.9379 153.4631 351° North 333 383 14,500 -1,200 Descending FlightAware ADS-B (YBBN / BNE)
06:03AM -27.8910 153.4551 351° North 330 380 14,000 -1,385 Descending Aus ATC (RADAR)
06:03AM -27.8804 153.4531 351° North 324 373 13,600 -1,600 Descending FlightAware ADS-B (YENO)
06:04AM -27.8259 153.4434 351° North 318 366 12,800 -1,184 Descending FlightAware ADS-B (YBBN / BNE)
06:05AM -27.7670 153.4330 351° North 316 364 12,100 -1,385 Descending Aus ATC (RADAR)
06:05AM -27.7323 153.4270 351° North 315 362 11,300 -1,789 Descending FlightAware ADS-B (YBBN / BNE)
06:06AM -27.6897 153.4196 351° North 314 361 10,400 -1,600 Descending FlightAware ADS-B (YENO)
06:06AM -27.6456 153.4113 350° North 310 357 9,700 -1,435 Descending FlightAware ADS-B (YBBN / BNE)
06:06AM -27.6215 153.4066 350° North 307 353 9,300 -1,333 Descending FlightAware ADS-B (YENO)
06:07AM -27.5827 153.3990 350° North 306 352 8,700 -1,435 Descending FlightAware ADS-B (YBBN / BNE)
06:07AM -27.5561 153.3939 350° North 301 346 8,200 -1,500 Descending FlightAware ADS-B (YENO)
06:08AM -27.5210 153.3872 350° North 299 344 7,600 -1,350 Descending FlightAware ADS-B (YBBN / BNE)
06:08AM -27.5006 153.3833 351° North 299 344 7,300 -968 Descending FlightAware ADS-B (YBBN / BNE)
06:08AM -27.4801 153.3797 351° North 290 334 7,100 -706 Descending FlightAware ADS-B (YBBN / BNE)
06:08AM -27.4594 153.3758 351° North 268 308 6,900 -857 Descending FlightAware ADS-B (YENO)
06:09AM -27.4371 153.3717 350° North 253 291 6,600 -1,125 Descending FlightAware ADS-B (YBBN / BNE)
06:09AM -27.4195 153.3683 350° North 249 287 6,300 -1,200 Descending FlightAware ADS-B (YBBN / BNE)
06:09AM -27.4033 153.3651 350° North 248 285 6,000 -1,116 Descending FlightAware ADS-B (YBBN / BNE)
06:10AM -27.3719 153.3590 350° North 244 281 5,500 -1,091 Descending FlightAware ADS-B (YENO)
06:10AM -27.3534 153.3555 350° North 243 280 5,200 -1,125 Descending FlightAware ADS-B (YENO)
06:10AM -27.3367 153.3523 350° North 241 277 4,900 -581 Descending FlightAware ADS-B (YBBN / BNE)
06:10AM -27.3203 153.3489 349° North 238 274 4,900 -194 Level FlightAware ADS-B (YBBN / BNE)
06:11AM -27.3024 153.3452 349° North 243 280 4,800 -429 Descending FlightAware ADS-B (YBBN / BNE)
06:11AM -27.2721 153.3389 350° North 241 277 4,600 -419 Descending FlightAware ADS-B (YENO)
06:11AM -27.2552 153.3353 349° North 239 275 4,500 -563 Descending FlightAware ADS-B (YENO)
06:12AM -27.2384 153.3315 349° North 240 276 4,300 -750 Descending FlightAware ADS-B (YENO)
06:12AM -27.2208 153.3274 348° North 238 274 4,100 -750 Descending FlightAware ADS-B (YBBN / BNE)
06:12AM -27.2041 153.3223 335° Northwest 234 269 3,900 -600 Descending FlightAware ADS-B (YBBN / BNE)
06:12AM -27.1928 153.3125 315° West 231 266 3,800 -146 Descending FlightAware ADS-B (YBBN / BNE)
06:13AM -27.1738 153.2894 301° West 222 255 3,800  Level FlightAware ADS-B (YENO)
06:13AM -27.1690 153.2693 261° West 214 246 3,800  Level FlightAware ADS-B (YENO)
06:13AM -27.1790 153.2498 225° Southwest 200 230 3,800 -115 Level FlightAware ADS-B (YBBN / BNE)
06:14AM -27.2010 153.2336 209° Southwest 179 206 3,700 -533 Descending FlightAware ADS-B (YBBN / BNE)
06:14AM -27.2115 153.2274 207° Southwest 179 206 3,400 -1,200 Descending FlightAware ADS-B (YBBN / BNE)
06:15AM -27.2268 153.2188 207° Southwest 174 200 3,000 -1,029 Descending FlightAware ADS-B (YENO)
06:15AM -27.2372 153.2128 207° Southwest 163 188 2,800 -727 Descending FlightAware ADS-B (YENO)
06:15AM -27.2486 153.2063 207° Southwest 152 175 2,600 -750 Descending FlightAware ADS-B (YENO)
06:15AM -27.2620 153.1986 207° Southwest 143 165 2,300 -818 Descending FlightAware ADS-B (YBBN / BNE)
06:16AM -27.2747 153.1914 207° Southwest 138 159 2,000 -789 Descending FlightAware ADS-B (YENO)
06:16AM -27.2836 153.1863 207° Southwest 137 158 1,800 -649 Descending FlightAware ADS-B (YENO)
06:16AM -27.2956 153.1795 207° Southwest 136 157 1,600 -667 Descending FlightAware ADS-B (YBBN / BNE)
06:17AM -27.3045 153.1744 207° Southwest 137 158 1,400 -774 Descending FlightAware ADS-B (YBBN / BNE)
06:17AM -27.3126 153.1698 207° Southwest 137 158 1,200 -769 Descending FlightAware ADS-B (YBBN / BNE)
06:17AM -27.3249 153.1627 207° Southwest 136 157 900 -720 Descending FlightAware ADS-B (YENO)
06:18AM -27.3406 153.1538 207° Southwest 136 157 600 -667 Descending FlightAware ADS-B (YBBN / BNE)
06:18AM -27.3514 153.1476 207° Southwest 136 157 400 -667 Descending FlightAware ADS-B (YENO)
06:19AM -27.3659 153.1393 207° Southwest 136 157 100 -667 Descending FlightAware ADS-B (YBBN / BNE)